sensor_id;sensor_type;location;lat;lon;timestamp;P1;durP1;ratioP1;P2;durP2;ratioP2
44854;SDS011;30591;48.228;16.398;2022-08-25T00:00:10;34.83;;;17.53;;
44854;SDS011;30591;48.228;16.398;2022-08-25T00:02:37;37.00;;;17.83;;
44854;SDS011;30591;48.228;16.398;2022-08-25T00:05:05;30.50;;;17.33;;
44854;SDS011;30591;48.228;16.398;2022-08-25T00:07:34;32.47;;;19.20;;
44854;SDS011;30591;48.228;16.398;2022-08-25T00:10:03;33.20;;;17.87;;
44854;SDS011;30591;48.228;16.398;2022-08-25T00:12:30;31.43;;;17.70;;
44854;SDS011;30591;48.228;16.398;2022-08-25T00:14:57;36.33;;;19.50;;
44854;SDS011;30591;48.228;16.398;2022-08-25T00:17:25;34.87;;;20.97;;
44854;SDS011;30591;48.228;16.398;2022-08-25T00:19:52;32.80;;;17.87;;
44854;SDS011;30591;48.228;16.398;2022-08-25T00:22:19;33.80;;;17.77;;
44854;SDS011;30591;48.228;16.398;2022-08-25T00:24:46;33.17;;;16.47;;
44854;SDS011;30591;48.228;16.398;2022-08-25T00:27:13;30.40;;;17.83;;
44854;SDS011;30591;48.228;16.398;2022-08-25T00:29:40;30.23;;;17.87;;
44854;SDS011;30591;48.228;16.398;2022-08-25T00:32:06;31.50;;;17.57;;
44854;SDS011;30591;48.228;16.398;2022-08-25T00:34:36;30.63;;;18.83;;
44854;SDS011;30591;48.228;16.398;2022-08-25T00:37:04;32.27;;;17.13;;
44854;SDS011;30591;48.228;16.398;2022-08-25T00:39:34;28.07;;;17.30;;
44854;SDS011;30591;48.228;16.398;2022-08-25T00:42:02;35.03;;;17.53;;
44854;SDS011;30591;48.228;16.398;2022-08-25T00:44:37;28.63;;;17.63;;
44854;SDS011;30591;48.228;16.398;2022-08-25T00:47:05;28.50;;;17.47;;
44854;SDS011;30591;48.228;16.398;2022-08-25T00:52:03;27.97;;;16.47;;
44854;SDS011;30591;48.228;16.398;2022-08-25T00:54:45;28.83;;;17.43;;
44854;SDS011;30591;48.228;16.398;2022-08-25T00:57:24;34.40;;;17.43;;
44854;SDS011;30591;48.228;16.398;2022-08-25T01:00:03;30.10;;;17.53;;
44854;SDS011;30591;48.228;16.398;2022-08-25T01:02:34;30.10;;;17.03;;
44854;SDS011;30591;48.228;16.398;2022-08-25T01:05:01;31.23;;;17.37;;
44854;SDS011;30591;48.228;16.398;2022-08-25T01:07:28;35.10;;;18.43;;
44854;SDS011;30591;48.228;16.398;2022-08-25T01:09:55;31.77;;;17.57;;
44854;SDS011;30591;48.228;16.398;2022-08-25T01:12:22;27.93;;;17.23;;
44854;SDS011;30591;48.228;16.398;2022-08-25T01:14:49;32.83;;;17.60;;
44854;SDS011;30591;48.228;16.398;2022-08-25T01:17:17;30.43;;;17.27;;
44854;SDS011;30591;48.228;16.398;2022-08-25T01:19:46;31.43;;;17.53;;
44854;SDS011;30591;48.228;16.398;2022-08-25T01:22:13;31.27;;;17.53;;
44854;SDS011;30591;48.228;16.398;2022-08-25T01:27:21;30.00;;;17.37;;
44854;SDS011;30591;48.228;16.398;2022-08-25T01:29:48;30.57;;;16.80;;
44854;SDS011;30591;48.228;16.398;2022-08-25T01:32:15;29.27;;;17.57;;
44854;SDS011;30591;48.228;16.398;2022-08-25T01:34:42;28.77;;;17.80;;
44854;SDS011;30591;48.228;16.398;2022-08-25T01:37:12;32.50;;;17.20;;
44854;SDS011;30591;48.228;16.398;2022-08-25T01:39:41;30.10;;;17.77;;
44854;SDS011;30591;48.228;16.398;2022-08-25T01:44:44;26.83;;;17.73;;
44854;SDS011;30591;48.228;16.398;2022-08-25T01:47:12;33.07;;;17.33;;
44854;SDS011;30591;48.228;16.398;2022-08-25T01:49:40;32.37;;;17.33;;
44854;SDS011;30591;48.228;16.398;2022-08-25T01:54:53;26.30;;;17.87;;
44854;SDS011;30591;48.228;16.398;2022-08-25T01:57:19;27.83;;;16.73;;
44854;SDS011;30591;48.228;16.398;2022-08-25T01:59:47;32.40;;;17.53;;
44854;SDS011;30591;48.228;16.398;2022-08-25T02:02:14;29.10;;;17.83;;
44854;SDS011;30591;48.228;16.398;2022-08-25T02:04:43;25.27;;;16.77;;
44854;SDS011;30591;48.228;16.398;2022-08-25T02:07:10;25.20;;;16.87;;
44854;SDS011;30591;48.228;16.398;2022-08-25T02:09:37;31.30;;;17.47;;
44854;SDS011;30591;48.228;16.398;2022-08-25T02:12:05;28.50;;;16.90;;
44854;SDS011;30591;48.228;16.398;2022-08-25T02:14:34;29.03;;;18.53;;
44854;SDS011;30591;48.228;16.398;2022-08-25T02:17:02;22.70;;;16.73;;
44854;SDS011;30591;48.228;16.398;2022-08-25T02:19:30;26.07;;;16.07;;
44854;SDS011;30591;48.228;16.398;2022-08-25T02:21:58;31.30;;;17.57;;
44854;SDS011;30591;48.228;16.398;2022-08-25T02:24:25;35.70;;;18.47;;
44854;SDS011;30591;48.228;16.398;2022-08-25T02:26:52;32.47;;;17.80;;
44854;SDS011;30591;48.228;16.398;2022-08-25T02:29:19;30.17;;;16.47;;
44854;SDS011;30591;48.228;16.398;2022-08-25T02:31:46;28.00;;;18.13;;
44854;SDS011;30591;48.228;16.398;2022-08-25T02:34:14;27.63;;;17.93;;
44854;SDS011;30591;48.228;16.398;2022-08-25T02:36:41;29.60;;;17.70;;
44854;SDS011;30591;48.228;16.398;2022-08-25T02:39:09;25.73;;;16.87;;
44854;SDS011;30591;48.228;16.398;2022-08-25T02:41:36;32.97;;;18.33;;
44854;SDS011;30591;48.228;16.398;2022-08-25T02:44:04;27.67;;;17.13;;
44854;SDS011;30591;48.228;16.398;2022-08-25T02:46:32;28.00;;;17.60;;
44854;SDS011;30591;48.228;16.398;2022-08-25T02:49:00;27.10;;;15.93;;
44854;SDS011;30591;48.228;16.398;2022-08-25T02:51:27;26.93;;;17.33;;
44854;SDS011;30591;48.228;16.398;2022-08-25T02:53:56;26.13;;;15.97;;
44854;SDS011;30591;48.228;16.398;2022-08-25T02:56:24;24.63;;;16.20;;
44854;SDS011;30591;48.228;16.398;2022-08-25T02:58:51;28.57;;;16.77;;
44854;SDS011;30591;48.228;16.398;2022-08-25T03:01:18;26.13;;;17.40;;
44854;SDS011;30591;48.228;16.398;2022-08-25T03:03:48;25.73;;;16.77;;
44854;SDS011;30591;48.228;16.398;2022-08-25T03:06:18;31.63;;;17.67;;
44854;SDS011;30591;48.228;16.398;2022-08-25T03:08:48;32.33;;;17.50;;
44854;SDS011;30591;48.228;16.398;2022-08-25T03:11:15;29.07;;;17.83;;
44854;SDS011;30591;48.228;16.398;2022-08-25T03:13:43;28.40;;;17.90;;
44854;SDS011;30591;48.228;16.398;2022-08-25T03:16:10;30.07;;;17.47;;
44854;SDS011;30591;48.228;16.398;2022-08-25T03:18:38;30.73;;;17.47;;
44854;SDS011;30591;48.228;16.398;2022-08-25T03:21:07;29.60;;;17.37;;
44854;SDS011;30591;48.228;16.398;2022-08-25T03:23:35;27.70;;;18.37;;
44854;SDS011;30591;48.228;16.398;2022-08-25T03:26:02;30.27;;;17.60;;
44854;SDS011;30591;48.228;16.398;2022-08-25T03:28:48;27.57;;;17.37;;
44854;SDS011;30591;48.228;16.398;2022-08-25T03:31:15;28.03;;;17.33;;
44854;SDS011;30591;48.228;16.398;2022-08-25T03:33:42;27.17;;;18.00;;
44854;SDS011;30591;48.228;16.398;2022-08-25T03:36:09;29.40;;;17.60;;
44854;SDS011;30591;48.228;16.398;2022-08-25T03:38:39;25.03;;;17.53;;
44854;SDS011;30591;48.228;16.398;2022-08-25T03:41:14;28.47;;;18.10;;
44854;SDS011;30591;48.228;16.398;2022-08-25T03:43:47;28.20;;;17.53;;
44854;SDS011;30591;48.228;16.398;2022-08-25T03:46:22;29.70;;;18.53;;
44854;SDS011;30591;48.228;16.398;2022-08-25T03:48:51;25.73;;;17.67;;
44854;SDS011;30591;48.228;16.398;2022-08-25T03:51:26;28.67;;;18.93;;
44854;SDS011;30591;48.228;16.398;2022-08-25T03:53:55;29.60;;;19.27;;
44854;SDS011;30591;48.228;16.398;2022-08-25T03:56:23;26.33;;;18.37;;
44854;SDS011;30591;48.228;16.398;2022-08-25T03:58:53;28.93;;;18.33;;
44854;SDS011;30591;48.228;16.398;2022-08-25T04:01:20;25.77;;;18.20;;
44854;SDS011;30591;48.228;16.398;2022-08-25T04:03:48;29.77;;;18.70;;
44854;SDS011;30591;48.228;16.398;2022-08-25T04:06:15;29.70;;;18.97;;
44854;SDS011;30591;48.228;16.398;2022-08-25T04:08:48;29.23;;;19.20;;
44854;SDS011;30591;48.228;16.398;2022-08-25T04:11:18;30.17;;;20.03;;
44854;SDS011;30591;48.228;16.398;2022-08-25T04:13:47;25.63;;;19.13;;
44854;SDS011;30591;48.228;16.398;2022-08-25T04:16:21;32.07;;;21.07;;
44854;SDS011;30591;48.228;16.398;2022-08-25T04:18:50;31.90;;;19.70;;
44854;SDS011;30591;48.228;16.398;2022-08-25T04:21:18;29.60;;;20.17;;
44854;SDS011;30591;48.228;16.398;2022-08-25T04:23:47;31.53;;;20.93;;
44854;SDS011;30591;48.228;16.398;2022-08-25T04:26:16;27.77;;;19.43;;
44854;SDS011;30591;48.228;16.398;2022-08-25T04:28:45;29.17;;;19.73;;
44854;SDS011;30591;48.228;16.398;2022-08-25T04:31:13;28.77;;;20.00;;
44854;SDS011;30591;48.228;16.398;2022-08-25T04:33:40;27.37;;;18.67;;
44854;SDS011;30591;48.228;16.398;2022-08-25T04:36:08;28.33;;;19.23;;
44854;SDS011;30591;48.228;16.398;2022-08-25T04:38:40;29.37;;;18.10;;
44854;SDS011;30591;48.228;16.398;2022-08-25T04:41:08;33.90;;;19.93;;
44854;SDS011;30591;48.228;16.398;2022-08-25T04:43:37;29.67;;;19.97;;
44854;SDS011;30591;48.228;16.398;2022-08-25T04:46:06;30.97;;;19.27;;
44854;SDS011;30591;48.228;16.398;2022-08-25T04:48:36;26.13;;;18.97;;
44854;SDS011;30591;48.228;16.398;2022-08-25T04:51:05;36.83;;;19.70;;
44854;SDS011;30591;48.228;16.398;2022-08-25T04:53:33;31.10;;;20.20;;
44854;SDS011;30591;48.228;16.398;2022-08-25T04:56:00;28.87;;;19.53;;
44854;SDS011;30591;48.228;16.398;2022-08-25T04:58:30;32.33;;;20.03;;
44854;SDS011;30591;48.228;16.398;2022-08-25T05:01:04;32.00;;;20.93;;
44854;SDS011;30591;48.228;16.398;2022-08-25T05:03:32;27.87;;;20.90;;
44854;SDS011;30591;48.228;16.398;2022-08-25T05:06:00;32.70;;;20.73;;
44854;SDS011;30591;48.228;16.398;2022-08-25T05:08:28;36.87;;;20.60;;
44854;SDS011;30591;48.228;16.398;2022-08-25T05:10:55;29.17;;;20.40;;
44854;SDS011;30591;48.228;16.398;2022-08-25T05:13:24;29.00;;;19.87;;
44854;SDS011;30591;48.228;16.398;2022-08-25T05:15:56;31.90;;;19.33;;
44854;SDS011;30591;48.228;16.398;2022-08-25T05:18:27;30.23;;;20.60;;
44854;SDS011;30591;48.228;16.398;2022-08-25T05:20:56;29.93;;;19.67;;
44854;SDS011;30591;48.228;16.398;2022-08-25T05:23:26;30.83;;;19.33;;
44854;SDS011;30591;48.228;16.398;2022-08-25T05:25:53;31.53;;;20.03;;
44854;SDS011;30591;48.228;16.398;2022-08-25T05:28:20;37.93;;;21.27;;
44854;SDS011;30591;48.228;16.398;2022-08-25T05:30:47;32.50;;;20.27;;
44854;SDS011;30591;48.228;16.398;2022-08-25T05:33:15;30.40;;;22.33;;
44854;SDS011;30591;48.228;16.398;2022-08-25T05:35:42;31.60;;;18.50;;
44854;SDS011;30591;48.228;16.398;2022-08-25T05:38:11;29.90;;;18.53;;
44854;SDS011;30591;48.228;16.398;2022-08-25T05:40:41;29.73;;;19.70;;
44854;SDS011;30591;48.228;16.398;2022-08-25T05:43:07;27.50;;;18.57;;
44854;SDS011;30591;48.228;16.398;2022-08-25T05:45:35;30.20;;;19.40;;
44854;SDS011;30591;48.228;16.398;2022-08-25T05:48:02;29.83;;;18.57;;
44854;SDS011;30591;48.228;16.398;2022-08-25T05:50:29;31.20;;;19.10;;
44854;SDS011;30591;48.228;16.398;2022-08-25T05:52:56;31.77;;;18.90;;
44854;SDS011;30591;48.228;16.398;2022-08-25T05:55:23;32.17;;;18.77;;
44854;SDS011;30591;48.228;16.398;2022-08-25T05:57:50;33.33;;;20.17;;
44854;SDS011;30591;48.228;16.398;2022-08-25T06:00:17;26.53;;;18.57;;
44854;SDS011;30591;48.228;16.398;2022-08-25T06:02:44;29.10;;;18.97;;
44854;SDS011;30591;48.228;16.398;2022-08-25T06:05:13;27.23;;;18.87;;
44854;SDS011;30591;48.228;16.398;2022-08-25T06:07:45;27.70;;;19.17;;
44854;SDS011;30591;48.228;16.398;2022-08-25T06:10:13;37.53;;;20.40;;
44854;SDS011;30591;48.228;16.398;2022-08-25T06:12:42;32.63;;;19.93;;
44854;SDS011;30591;48.228;16.398;2022-08-25T06:15:10;33.23;;;20.43;;
44854;SDS011;30591;48.228;16.398;2022-08-25T06:17:39;27.40;;;18.17;;
44854;SDS011;30591;48.228;16.398;2022-08-25T06:20:08;31.13;;;19.40;;
44854;SDS011;30591;48.228;16.398;2022-08-25T06:22:38;24.87;;;17.97;;
44854;SDS011;30591;48.228;16.398;2022-08-25T06:25:06;34.53;;;19.10;;
44854;SDS011;30591;48.228;16.398;2022-08-25T06:27:34;26.83;;;19.43;;
44854;SDS011;30591;48.228;16.398;2022-08-25T06:30:03;30.10;;;19.77;;
44854;SDS011;30591;48.228;16.398;2022-08-25T06:32:34;29.60;;;19.23;;
44854;SDS011;30591;48.228;16.398;2022-08-25T06:35:03;31.70;;;19.87;;
44854;SDS011;30591;48.228;16.398;2022-08-25T06:37:32;28.13;;;19.13;;
44854;SDS011;30591;48.228;16.398;2022-08-25T06:39:59;30.67;;;18.67;;
44854;SDS011;30591;48.228;16.398;2022-08-25T06:42:27;26.37;;;19.00;;
44854;SDS011;30591;48.228;16.398;2022-08-25T06:44:54;34.97;;;20.17;;
44854;SDS011;30591;48.228;16.398;2022-08-25T06:47:21;32.37;;;19.60;;
44854;SDS011;30591;48.228;16.398;2022-08-25T06:49:48;34.13;;;20.30;;
44854;SDS011;30591;48.228;16.398;2022-08-25T06:52:15;29.37;;;19.37;;
44854;SDS011;30591;48.228;16.398;2022-08-25T06:54:41;29.67;;;18.33;;
44854;SDS011;30591;48.228;16.398;2022-08-25T06:57:08;29.67;;;18.67;;
44854;SDS011;30591;48.228;16.398;2022-08-25T06:59:35;34.30;;;19.87;;
44854;SDS011;30591;48.228;16.398;2022-08-25T07:02:06;33.23;;;19.27;;
44854;SDS011;30591;48.228;16.398;2022-08-25T07:04:34;30.47;;;20.43;;
44854;SDS011;30591;48.228;16.398;2022-08-25T07:07:01;30.60;;;19.57;;
44854;SDS011;30591;48.228;16.398;2022-08-25T07:09:29;36.23;;;20.00;;
44854;SDS011;30591;48.228;16.398;2022-08-25T07:11:56;31.93;;;19.13;;
44854;SDS011;30591;48.228;16.398;2022-08-25T07:14:23;35.43;;;19.77;;
44854;SDS011;30591;48.228;16.398;2022-08-25T07:16:50;28.87;;;19.10;;
44854;SDS011;30591;48.228;16.398;2022-08-25T07:19:17;31.13;;;19.47;;
44854;SDS011;30591;48.228;16.398;2022-08-25T07:21:48;29.70;;;19.90;;
44854;SDS011;30591;48.228;16.398;2022-08-25T07:24:17;30.40;;;19.30;;
44854;SDS011;30591;48.228;16.398;2022-08-25T07:26:43;31.37;;;19.53;;
44854;SDS011;30591;48.228;16.398;2022-08-25T07:29:16;30.27;;;20.95;;
44854;SDS011;30591;48.228;16.398;2022-08-25T07:32:01;32.83;;;18.77;;
44854;SDS011;30591;48.228;16.398;2022-08-25T07:34:30;31.40;;;19.48;;
44854;SDS011;30591;48.228;16.398;2022-08-25T07:37:18;31.17;;;19.23;;
44854;SDS011;30591;48.228;16.398;2022-08-25T07:40:06;28.50;;;20.15;;
44854;SDS011;30591;48.228;16.398;2022-08-25T07:42:35;29.90;;;21.92;;
44854;SDS011;30591;48.228;16.398;2022-08-25T07:45:03;37.63;;;21.35;;
44854;SDS011;30591;48.228;16.398;2022-08-25T07:47:32;26.25;;;18.20;;
44854;SDS011;30591;48.228;16.398;2022-08-25T07:50:00;35.08;;;20.30;;
44854;SDS011;30591;48.228;16.398;2022-08-25T07:52:26;30.58;;;19.58;;
44854;SDS011;30591;48.228;16.398;2022-08-25T07:54:53;38.20;;;20.48;;
44854;SDS011;30591;48.228;16.398;2022-08-25T07:57:20;33.17;;;23.25;;
44854;SDS011;30591;48.228;16.398;2022-08-25T07:59:49;33.63;;;22.63;;
44854;SDS011;30591;48.228;16.398;2022-08-25T08:02:16;29.92;;;19.83;;
44854;SDS011;30591;48.228;16.398;2022-08-25T08:04:48;32.63;;;19.98;;
44854;SDS011;30591;48.228;16.398;2022-08-25T08:07:17;32.78;;;21.45;;
44854;SDS011;30591;48.228;16.398;2022-08-25T08:09:46;35.40;;;20.27;;
44854;SDS011;30591;48.228;16.398;2022-08-25T08:12:21;31.48;;;19.70;;
44854;SDS011;30591;48.228;16.398;2022-08-25T08:14:49;39.15;;;21.25;;
44854;SDS011;30591;48.228;16.398;2022-08-25T08:17:17;33.75;;;20.00;;
44854;SDS011;30591;48.228;16.398;2022-08-25T08:19:44;33.13;;;20.75;;
44854;SDS011;30591;48.228;16.398;2022-08-25T08:22:11;27.20;;;19.02;;
44854;SDS011;30591;48.228;16.398;2022-08-25T08:24:41;29.38;;;19.15;;
44854;SDS011;30591;48.228;16.398;2022-08-25T08:27:22;25.58;;;17.45;;
44854;SDS011;30591;48.228;16.398;2022-08-25T08:29:49;25.15;;;17.80;;
44854;SDS011;30591;48.228;16.398;2022-08-25T08:32:17;29.77;;;17.23;;
44854;SDS011;30591;48.228;16.398;2022-08-25T08:34:44;25.48;;;18.20;;
44854;SDS011;30591;48.228;16.398;2022-08-25T08:37:16;27.58;;;18.38;;
44854;SDS011;30591;48.228;16.398;2022-08-25T08:39:48;25.58;;;18.30;;
44854;SDS011;30591;48.228;16.398;2022-08-25T08:45:03;24.85;;;16.00;;
44854;SDS011;30591;48.228;16.398;2022-08-25T08:50:48;27.13;;;16.30;;
44854;SDS011;30591;48.228;16.398;2022-08-25T08:59:21;26.52;;;15.82;;
44854;SDS011;30591;48.228;16.398;2022-08-25T09:01:59;27.33;;;16.80;;
44854;SDS011;30591;48.228;16.398;2022-08-25T09:07:03;26.60;;;16.33;;
44854;SDS011;30591;48.228;16.398;2022-08-25T09:09:35;20.98;;;13.90;;
44854;SDS011;30591;48.228;16.398;2022-08-25T09:12:25;21.40;;;14.15;;
44854;SDS011;30591;48.228;16.398;2022-08-25T09:18:35;21.05;;;13.20;;
44854;SDS011;30591;48.228;16.398;2022-08-25T09:21:21;20.15;;;13.55;;
44854;SDS011;30591;48.228;16.398;2022-08-25T09:24:20;22.38;;;12.50;;
44854;SDS011;30591;48.228;16.398;2022-08-25T09:30:13;22.27;;;13.80;;
44854;SDS011;30591;48.228;16.398;2022-08-25T09:32:46;23.30;;;13.73;;
44854;SDS011;30591;48.228;16.398;2022-08-25T09:35:22;21.10;;;13.60;;
44854;SDS011;30591;48.228;16.398;2022-08-25T09:40:23;17.70;;;13.27;;
44854;SDS011;30591;48.228;16.398;2022-08-25T09:42:53;22.52;;;13.25;;
44854;SDS011;30591;48.228;16.398;2022-08-25T09:45:38;22.02;;;14.15;;
44854;SDS011;30591;48.228;16.398;2022-08-25T09:57:13;20.35;;;12.82;;
44854;SDS011;30591;48.228;16.398;2022-08-25T09:59:35;17.38;;;12.30;;
44854;SDS011;30591;48.228;16.398;2022-08-25T10:04:51;21.98;;;13.77;;
44854;SDS011;30591;48.228;16.398;2022-08-25T10:07:29;17.85;;;12.88;;
44854;SDS011;30591;48.228;16.398;2022-08-25T10:10:03;21.05;;;13.48;;
44854;SDS011;30591;48.228;16.398;2022-08-25T10:12:43;19.65;;;12.48;;
44854;SDS011;30591;48.228;16.398;2022-08-25T10:17:57;17.80;;;12.20;;
44854;SDS011;30591;48.228;16.398;2022-08-25T10:20:42;20.10;;;13.00;;
44854;SDS011;30591;48.228;16.398;2022-08-25T10:23:12;20.35;;;12.55;;
44854;SDS011;30591;48.228;16.398;2022-08-25T10:25:42;17.88;;;11.80;;
44854;SDS011;30591;48.228;16.398;2022-08-25T10:28:46;21.52;;;12.95;;
44854;SDS011;30591;48.228;16.398;2022-08-25T10:34:14;16.40;;;11.27;;
44854;SDS011;30591;48.228;16.398;2022-08-25T10:39:45;20.25;;;11.68;;
44854;SDS011;30591;48.228;16.398;2022-08-25T10:44:59;23.60;;;14.27;;
44854;SDS011;30591;48.228;16.398;2022-08-25T10:50:37;14.93;;;12.10;;
44854;SDS011;30591;48.228;16.398;2022-08-25T10:58:23;16.13;;;9.82;;
44854;SDS011;30591;48.228;16.398;2022-08-25T11:01:06;14.45;;;9.52;;
44854;SDS011;30591;48.228;16.398;2022-08-25T11:03:56;19.98;;;11.05;;
44854;SDS011;30591;48.228;16.398;2022-08-25T11:06:32;20.55;;;10.63;;
44854;SDS011;30591;48.228;16.398;2022-08-25T11:09:05;16.00;;;10.70;;
44854;SDS011;30591;48.228;16.398;2022-08-25T11:11:48;15.45;;;10.63;;
44854;SDS011;30591;48.228;16.398;2022-08-25T11:14:39;16.55;;;9.70;;
44854;SDS011;30591;48.228;16.398;2022-08-25T11:17:27;15.07;;;10.88;;
44854;SDS011;30591;48.228;16.398;2022-08-25T11:20:04;18.13;;;10.15;;
44854;SDS011;30591;48.228;16.398;2022-08-25T11:22:47;16.83;;;11.30;;
44854;SDS011;30591;48.228;16.398;2022-08-25T11:30:41;17.50;;;10.25;;
44854;SDS011;30591;48.228;16.398;2022-08-25T11:33:12;17.65;;;11.63;;
44854;SDS011;30591;48.228;16.398;2022-08-25T11:51:47;16.58;;;10.35;;
44854;SDS011;30591;48.228;16.398;2022-08-25T12:05:02;14.20;;;9.68;;
44854;SDS011;30591;48.228;16.398;2022-08-25T12:07:56;18.67;;;10.23;;
44854;SDS011;30591;48.228;16.398;2022-08-25T12:13:40;15.70;;;10.27;;
44854;SDS011;30591;48.228;16.398;2022-08-25T12:21:50;16.73;;;9.93;;
44854;SDS011;30591;48.228;16.398;2022-08-25T12:29:54;14.75;;;9.00;;
44854;SDS011;30591;48.228;16.398;2022-08-25T12:32:34;13.40;;;9.35;;
44854;SDS011;30591;48.228;16.398;2022-08-25T12:35:36;15.32;;;8.63;;
44854;SDS011;30591;48.228;16.398;2022-08-25T12:38:26;12.52;;;8.70;;
44854;SDS011;30591;48.228;16.398;2022-08-25T12:41:09;15.70;;;8.32;;
44854;SDS011;30591;48.228;16.398;2022-08-25T12:43:45;14.55;;;9.00;;
44854;SDS011;30591;48.228;16.398;2022-08-25T12:51:53;12.27;;;8.02;;
44854;SDS011;30591;48.228;16.398;2022-08-25T12:54:45;13.75;;;8.20;;
44854;SDS011;30591;48.228;16.398;2022-08-25T12:57:27;14.73;;;7.88;;
44854;SDS011;30591;48.228;16.398;2022-08-25T13:11:35;11.07;;;6.60;;
44854;SDS011;30591;48.228;16.398;2022-08-25T13:14:25;11.48;;;7.10;;
44854;SDS011;30591;48.228;16.398;2022-08-25T13:17:03;13.52;;;7.70;;
44854;SDS011;30591;48.228;16.398;2022-08-25T13:19:31;11.27;;;7.32;;
44854;SDS011;30591;48.228;16.398;2022-08-25T13:22:02;10.50;;;7.10;;
44854;SDS011;30591;48.228;16.398;2022-08-25T13:24:42;9.70;;;6.45;;
44854;SDS011;30591;48.228;16.398;2022-08-25T13:27:23;12.50;;;6.70;;
44854;SDS011;30591;48.228;16.398;2022-08-25T13:29:56;13.13;;;6.57;;
44854;SDS011;30591;48.228;16.398;2022-08-25T13:32:33;9.07;;;6.75;;
44854;SDS011;30591;48.228;16.398;2022-08-25T13:37:43;9.75;;;6.63;;
44854;SDS011;30591;48.228;16.398;2022-08-25T13:42:44;11.70;;;6.63;;
44854;SDS011;30591;48.228;16.398;2022-08-25T13:45:25;10.38;;;6.97;;
44854;SDS011;30591;48.228;16.398;2022-08-25T13:48:08;11.30;;;6.68;;
44854;SDS011;30591;48.228;16.398;2022-08-25T13:50:48;10.18;;;6.47;;
44854;SDS011;30591;48.228;16.398;2022-08-25T13:53:25;10.82;;;6.97;;
44854;SDS011;30591;48.228;16.398;2022-08-25T13:55:58;9.80;;;6.60;;
44854;SDS011;30591;48.228;16.398;2022-08-25T13:58:28;11.85;;;6.95;;
44854;SDS011;30591;48.228;16.398;2022-08-25T14:01:17;8.38;;;6.30;;
44854;SDS011;30591;48.228;16.398;2022-08-25T14:07:12;6.57;;;5.97;;
44854;SDS011;30591;48.228;16.398;2022-08-25T14:15:41;11.75;;;7.47;;
44854;SDS011;30591;48.228;16.398;2022-08-25T14:17:44;9.30;;;5.97;;
44854;SDS011;30591;48.228;16.398;2022-08-25T14:20:30;108.57;;;20.25;;
44854;SDS011;30591;48.228;16.398;2022-08-25T14:23:00;12.30;;;6.05;;
44854;SDS011;30591;48.228;16.398;2022-08-25T14:25:35;34.65;;;9.73;;
44854;SDS011;30591;48.228;16.398;2022-08-25T14:28:09;14.93;;;7.18;;
44854;SDS011;30591;48.228;16.398;2022-08-25T14:30:44;15.15;;;6.60;;
44854;SDS011;30591;48.228;16.398;2022-08-25T14:33:17;14.80;;;6.93;;
44854;SDS011;30591;48.228;16.398;2022-08-25T14:35:49;10.45;;;6.80;;
44854;SDS011;30591;48.228;16.398;2022-08-25T14:38:19;19.85;;;8.68;;
44854;SDS011;30591;48.228;16.398;2022-08-25T14:40:49;68.32;;;14.98;;
44854;SDS011;30591;48.228;16.398;2022-08-25T14:43:17;14.27;;;6.07;;
44854;SDS011;30591;48.228;16.398;2022-08-25T14:45:49;9.32;;;6.07;;
44854;SDS011;30591;48.228;16.398;2022-08-25T14:48:27;14.32;;;6.88;;
44854;SDS011;30591;48.228;16.398;2022-08-25T14:50:57;9.20;;;5.32;;
44854;SDS011;30591;48.228;16.398;2022-08-25T14:53:25;9.52;;;6.47;;
44854;SDS011;30591;48.228;16.398;2022-08-25T14:55:54;8.57;;;5.70;;
44854;SDS011;30591;48.228;16.398;2022-08-25T14:58:25;7.53;;;5.30;;
44854;SDS011;30591;48.228;16.398;2022-08-25T15:00:59;6.30;;;5.00;;
44854;SDS011;30591;48.228;16.398;2022-08-25T15:03:35;6.50;;;4.93;;
44854;SDS011;30591;48.228;16.398;2022-08-25T15:06:04;7.35;;;5.43;;
44854;SDS011;30591;48.228;16.398;2022-08-25T15:08:31;10.10;;;5.75;;
44854;SDS011;30591;48.228;16.398;2022-08-25T15:11:17;7.65;;;6.03;;
44854;SDS011;30591;48.228;16.398;2022-08-25T15:13:44;8.75;;;5.40;;
44854;SDS011;30591;48.228;16.398;2022-08-25T15:16:17;7.68;;;5.68;;
44854;SDS011;30591;48.228;16.398;2022-08-25T15:18:59;9.30;;;5.78;;
44854;SDS011;30591;48.228;16.398;2022-08-25T15:21:28;9.80;;;5.85;;
44854;SDS011;30591;48.228;16.398;2022-08-25T15:23:56;10.07;;;5.80;;
44854;SDS011;30591;48.228;16.398;2022-08-25T15:26:25;10.32;;;5.70;;
44854;SDS011;30591;48.228;16.398;2022-08-25T15:28:52;10.77;;;6.43;;
44854;SDS011;30591;48.228;16.398;2022-08-25T15:31:19;11.50;;;6.05;;
44854;SDS011;30591;48.228;16.398;2022-08-25T15:33:48;12.25;;;6.72;;
44854;SDS011;30591;48.228;16.398;2022-08-25T15:36:17;8.88;;;5.65;;
44854;SDS011;30591;48.228;16.398;2022-08-25T15:38:49;9.48;;;5.38;;
44854;SDS011;30591;48.228;16.398;2022-08-25T15:41:18;8.63;;;6.57;;
44854;SDS011;30591;48.228;16.398;2022-08-25T15:43:48;8.57;;;5.40;;
44854;SDS011;30591;48.228;16.398;2022-08-25T15:46:18;9.20;;;6.00;;
44854;SDS011;30591;48.228;16.398;2022-08-25T15:48:46;9.45;;;5.28;;
44854;SDS011;30591;48.228;16.398;2022-08-25T15:51:14;8.43;;;6.13;;
44854;SDS011;30591;48.228;16.398;2022-08-25T15:53:43;9.85;;;6.20;;
44854;SDS011;30591;48.228;16.398;2022-08-25T15:56:11;9.43;;;6.05;;
44854;SDS011;30591;48.228;16.398;2022-08-25T15:58:52;7.85;;;5.60;;
44854;SDS011;30591;48.228;16.398;2022-08-25T16:01:21;9.88;;;6.35;;
44854;SDS011;30591;48.228;16.398;2022-08-25T16:03:50;11.95;;;6.30;;
44854;SDS011;30591;48.228;16.398;2022-08-25T16:06:18;9.20;;;6.25;;
44854;SDS011;30591;48.228;16.398;2022-08-25T16:08:46;8.73;;;6.00;;
44854;SDS011;30591;48.228;16.398;2022-08-25T16:13:46;10.75;;;6.25;;
44854;SDS011;30591;48.228;16.398;2022-08-25T16:16:15;9.55;;;5.47;;
44854;SDS011;30591;48.228;16.398;2022-08-25T16:18:43;19.88;;;7.13;;
44854;SDS011;30591;48.228;16.398;2022-08-25T16:21:11;11.32;;;5.78;;
44854;SDS011;30591;48.228;16.398;2022-08-25T16:23:41;13.57;;;6.20;;
44854;SDS011;30591;48.228;16.398;2022-08-25T16:26:09;10.48;;;6.88;;
44854;SDS011;30591;48.228;16.398;2022-08-25T16:28:39;8.65;;;6.50;;
44854;SDS011;30591;48.228;16.398;2022-08-25T16:31:09;9.43;;;5.75;;
44854;SDS011;30591;48.228;16.398;2022-08-25T16:33:38;9.90;;;6.00;;
44854;SDS011;30591;48.228;16.398;2022-08-25T16:36:11;10.68;;;5.97;;
44854;SDS011;30591;48.228;16.398;2022-08-25T16:39:13;9.32;;;6.35;;
44854;SDS011;30591;48.228;16.398;2022-08-25T16:42:17;7.68;;;5.72;;
44854;SDS011;30591;48.228;16.398;2022-08-25T16:44:45;7.72;;;5.22;;
44854;SDS011;30591;48.228;16.398;2022-08-25T16:47:12;10.55;;;5.75;;
44854;SDS011;30591;48.228;16.398;2022-08-25T16:49:43;9.70;;;6.85;;
44854;SDS011;30591;48.228;16.398;2022-08-25T16:52:10;11.20;;;7.97;;
44854;SDS011;30591;48.228;16.398;2022-08-25T16:54:56;10.63;;;8.30;;
44854;SDS011;30591;48.228;16.398;2022-08-25T16:57:42;17.52;;;13.70;;
44854;SDS011;30591;48.228;16.398;2022-08-25T17:00:19;18.52;;;12.25;;
44854;SDS011;30591;48.228;16.398;2022-08-25T17:02:54;17.45;;;10.05;;